Map

Track Data

SID SEASON NUMBER BASIN SUBBASIN NAME ISO_TIME NATURE LAT LON WMO_WIND WMO_PRES WMO_AGENCY TRACK_TYPE DIST2LAND LANDFALL IFLAG USA_AGENCY USA_ATCF_ID USA_LAT USA_LON USA_RECORD USA_STATUS USA_WIND USA_PRES USA_SSHS USA_R34_NE USA_R34_SE USA_R34_SW USA_R34_NW USA_R50_NE USA_R50_SE USA_R50_SW USA_R50_NW USA_R64_NE USA_R64_SE USA_R64_SW USA_R64_NW USA_POCI USA_ROCI USA_RMW USA_EYE TOKYO_LAT TOKYO_LON TOKYO_GRADE TOKYO_WIND TOKYO_PRES TOKYO_R50_DIR TOKYO_R50_LONG TOKYO_R50_SHORT TOKYO_R30_DIR TOKYO_R30_LONG TOKYO_R30_SHORT TOKYO_LAND CMA_LAT CMA_LON CMA_CAT CMA_WIND CMA_PRES HKO_LAT HKO_LON HKO_CAT HKO_WIND HKO_PRES NEWDELHI_LAT NEWDELHI_LON NEWDELHI_GRADE NEWDELHI_WIND NEWDELHI_PRES NEWDELHI_CI NEWDELHI_DP NEWDELHI_POCI REUNION_LAT REUNION_LON REUNION_TYPE REUNION_WIND REUNION_PRES REUNION_TNUM REUNION_CI REUNION_RMW REUNION_R34_NE REUNION_R34_SE REUNION_R34_SW REUNION_R34_NW REUNION_R50_NE REUNION_R50_SE REUNION_R50_SW REUNION_R50_NW REUNION_R64_NE REUNION_R64_SE REUNION_R64_SW REUNION_R64_NW BOM_LAT BOM_LON BOM_TYPE BOM_WIND BOM_PRES BOM_TNUM BOM_CI BOM_RMW BOM_R34_NE BOM_R34_SE BOM_R34_SW BOM_R34_NW BOM_R50_NE BOM_R50_SE BOM_R50_SW BOM_R50_NW BOM_R64_NE BOM_R64_SE BOM_R64_SW BOM_R64_NW BOM_ROCI BOM_POCI BOM_EYE BOM_POS_METHOD BOM_PRES_METHOD NADI_LAT NADI_LON NADI_CAT NADI_WIND NADI_PRES WELLINGTON_LAT WELLINGTON_LON WELLINGTON_WIND WELLINGTON_PRES DS824_LAT DS824_LON DS824_STAGE DS824_WIND DS824_PRES TD9636_LAT TD9636_LON TD9636_STAGE TD9636_WIND TD9636_PRES TD9635_LAT TD9635_LON TD9635_WIND TD9635_PRES TD9635_ROCI NEUMANN_LAT NEUMANN_LON NEUMANN_CLASS NEUMANN_WIND NEUMANN_PRES MLC_LAT MLC_LON MLC_CLASS MLC_WIND MLC_PRES USA_GUST BOM_GUST BOM_GUST_PER REUNION_GUST REUNION_GUST_PER USA_SEAHGT USA_SEARAD_NE USA_SEARAD_SE USA_SEARAD_SW USA_SEARAD_NW STORM_SPEED STORM_DIR
1911217N18145 1911 47 WP MM NOT_NAMED 1911-08-04 21:00:00 NR 17.5000 144.500 main 1976 1924 __________O___ -1 17.5000 144.500 4 12 298
1911217N18145 1911 47 WP MM NOT_NAMED 1911-08-05 00:00:00 NR 17.7842 143.944 main 1920 1869 __________P___ -1 17.7842 143.944 4 12 298
1911217N18145 1911 47 WP MM NOT_NAMED 1911-08-05 03:00:00 NR 18.0842 143.361 main 1869 1814 __________P___ -1 18.0842 143.361 4 13 299
1911217N18145 1911 47 WP MM NOT_NAMED 1911-08-05 06:00:00 NR 18.4172 142.722 main 1810 1743 __________P___ -1 18.4172 142.722 4 15 299
1911217N18145 1911 47 WP MM NOT_NAMED 1911-08-05 09:00:00 NR 18.8000 142.000 main 1743 1673 __________O___ -1 18.8000 142.000 4 17 299
1911217N18145 1911 47 WP MM NOT_NAMED 1911-08-05 12:00:00 NR 19.2401 141.184 main 1673 1586 __________P___ -1 19.2401 141.184 4 18 300
1911217N18145 1911 47 WP MM NOT_NAMED 1911-08-05 15:00:00 NR 19.7101 140.328 main 1580 1504 __________P___ -1 19.7101 140.328 4 18 301
1911217N18145 1911 47 WP MM NOT_NAMED 1911-08-05 18:00:00 NR 20.1747 139.508 main 1489 1413 __________P___ -1 20.1747 139.508 4 17 302
1911217N18145 1911 47 WP MM NOT_NAMED 1911-08-05 21:00:00 NR 20.6000 138.800 main 1413 1358 __________O___ -1 20.6000 138.800 4 14 304
1911217N18145 1911 47 WP MM NOT_NAMED 1911-08-06 00:00:00 NR 20.9489 138.305 main 1358 1308 __________P___ -1 20.9489 138.305 4 10 309
1911217N18145 1911 47 WP MM NOT_NAMED 1911-08-06 03:00:00 NR 21.2571 137.927 main 1298 1263 __________P___ -1 21.2571 137.927 4 9 312
1911217N18145 1911 47 WP MM NOT_NAMED 1911-08-06 06:00:00 NR 21.5369 137.611 main 1263 1218 __________P___ -1 21.5369 137.611 4 8 313
1911217N18145 1911 47 WP MM NOT_NAMED 1911-08-06 09:00:00 NR 21.8000 137.300 main 1218 1168 __________O___ -1 21.8000 137.300 4 9 309
1911217N18145 1911 47 WP MM NOT_NAMED 1911-08-06 12:00:00 NR 22.0850 136.871 main 1168 1128 __________P___ -1 22.0850 136.871 4 10 305
1911217N18145 1911 47 WP MM NOT_NAMED 1911-08-06 15:00:00 NR 22.3530 136.440 main 1114 1079 __________P___ -1 22.3530 136.440 4 9 304
1911217N18145 1911 47 WP MM NOT_NAMED 1911-08-06 18:00:00 NR 22.5944 136.040 main 1074 1040 __________P___ -1 22.5944 136.040 4 8 303
1911217N18145 1911 47 WP MM NOT_NAMED 1911-08-06 21:00:00 NR 22.8000 135.700 main 1040 1021 __________O___ -1 22.8000 135.700 4 6 304
1911217N18145 1911 47 WP MM NOT_NAMED 1911-08-07 00:00:00 NR 22.9562 135.468 main 1011 992 __________P___ -1 22.9562 135.468 4 5 307
1911217N18145 1911 47 WP MM NOT_NAMED 1911-08-07 03:00:00 NR 23.0792 135.296 main 992 977 __________P___ -1 23.0792 135.296 4 4 309
1911217N18145 1911 47 WP MM NOT_NAMED 1911-08-07 06:00:00 NR 23.1876 135.152 main 977 958 __________P___ -1 23.1876 135.152 4 4 309
1911217N18145 1911 47 WP MM NOT_NAMED 1911-08-07 09:00:00 NR 23.3000 135.000 main 958 940 __________O___ -1 23.3000 135.000 4 4 308
1911217N18145 1911 47 WP MM NOT_NAMED 1911-08-07 12:00:00 NR 23.4469 134.789 main 940 911 __________P___ -1 23.4469 134.789 4 5 307
1911217N18145 1911 47 WP MM NOT_NAMED 1911-08-07 15:00:00 NR 23.6000 134.565 main 911 889 __________P___ -1 23.6000 134.565 4 5 306
1911217N18145 1911 47 WP MM NOT_NAMED 1911-08-07 18:00:00 NR 23.7531 134.333 main 878 860 __________P___ -1 23.7531 134.333 4 5 305
1911217N18145 1911 47 WP MM NOT_NAMED 1911-08-07 21:00:00 NR 23.9000 134.100 main 860 842 __________O___ -1 23.9000 134.100 4 5 304
1911217N18145 1911 47 WP MM NOT_NAMED 1911-08-08 00:00:00 NR 24.0361 133.879 main 842 814 __________P___ -1 24.0361 133.879 4 5 303
1911217N18145 1911 47 WP MM NOT_NAMED 1911-08-08 03:00:00 NR 24.1648 133.657 main 814 793 __________P___ -1 24.1648 133.657 4 5 302
1911217N18145 1911 47 WP MM NOT_NAMED 1911-08-08 06:00:00 NR 24.2861 133.432 main 793 776 __________P___ -1 24.2861 133.432 4 5 299
1911217N18145 1911 47 WP MM NOT_NAMED 1911-08-08 09:00:00 NR 24.4000 133.200 main 776 760 __________O___ -1 24.4000 133.200 4 4 297
1911217N18145 1911 47 WP MM NOT_NAMED 1911-08-08 12:00:00 NR 24.4903 132.997 main 760 743 __________P___ -1 24.4903 132.997 4 4 295
1911217N18145 1911 47 WP MM NOT_NAMED 1911-08-08 15:00:00 NR 24.5764 132.781 main 743 725 __________P___ -1 24.5764 132.781 4 5 293
1911217N18145 1911 47 WP MM NOT_NAMED 1911-08-08 18:00:00 NR 24.6744 132.525 main 725 707 __________P___ -1 24.6744 132.525 4 6 293
1911217N18145 1911 47 WP MM NOT_NAMED 1911-08-08 21:00:00 NR 24.8000 132.200 main 707 678 __________O___ -1 24.8000 132.200 4 7 293
1911217N18145 1911 47 WP MM NOT_NAMED 1911-08-09 00:00:00 NR 24.9676 131.772 main 678 650 __________P___ -1 24.9676 131.772 4 9 293
1911217N18145 1911 47 WP MM NOT_NAMED 1911-08-09 03:00:00 NR 25.1631 131.275 main 650 625 __________P___ -1 25.1631 131.275 4 10 294
1911217N18145 1911 47 WP MM NOT_NAMED 1911-08-09 06:00:00 NR 25.3769 130.741 main 625 604 __________P___ -1 25.3769 130.741 4 11 294
1911217N18145 1911 47 WP MM NOT_NAMED 1911-08-09 09:00:00 NR 25.6000 130.200 main 604 587 __________O___ -1 25.6000 130.200 4 10 295
1911217N18145 1911 47 WP MM NOT_NAMED 1911-08-09 12:00:00 NR 25.8045 129.723 main 588 572 __________P___ -1 25.8045 129.723 4 10 296
1911217N18145 1911 47 WP MM NOT_NAMED 1911-08-09 15:00:00 NR 26.0183 129.243 main 577 563 __________P___ -1 26.0183 129.243 4 10 297
1911217N18145 1911 47 WP MM NOT_NAMED 1911-08-09 18:00:00 NR 26.2480 128.742 main 570 553 __________P___ -1 26.2480 128.742 4 11 297
1911217N18145 1911 47 WP MM NOT_NAMED 1911-08-09 21:00:00 NR 26.5000 128.200 main 558 547 __________O___ -1 26.5000 128.200 4 11 299
1911217N18145 1911 47 WP MM NOT_NAMED 1911-08-10 00:00:00 NR 26.7803 127.653 main 547 546 __________P___ -1 26.7803 127.653 4 12 300
1911217N18145 1911 47 WP MM NOT_NAMED 1911-08-10 03:00:00 NR 27.0813 127.055 main 547 474 __________P___ -1 27.0813 127.055 4 13 298
1911217N18145 1911 47 WP MM NOT_NAMED 1911-08-10 06:00:00 NR 27.3918 126.380 main 474 389 __________P___ -1 27.3918 126.380 4 14 296
1911217N18145 1911 47 WP MM NOT_NAMED 1911-08-10 09:00:00 NR 27.7000 125.600 main 389 292 __________O___ -1 27.7000 125.600 4 17 289
1911217N18145 1911 47 WP MM NOT_NAMED 1911-08-10 12:00:00 NR 27.9514 124.573 main 286 183 __________P___ -1 27.9514 124.573 4 20 285
1911217N18145 1911 47 WP MM NOT_NAMED 1911-08-10 15:00:00 NR 28.1984 123.460 main 183 71 __________P___ -1 28.1984 123.460 4 20 285
1911217N18145 1911 47 WP MM NOT_NAMED 1911-08-10 18:00:00 NR 28.4703 122.392 main 71 0 __________P___ -1 28.4703 122.392 4 18 289
1911217N18145 1911 47 WP MM NOT_NAMED 1911-08-10 21:00:00 NR 28.8000 121.500 main 0 0 __________O___ -1 28.8000 121.500 4 15 302
1911217N18145 1911 47 WP MM NOT_NAMED 1911-08-11 00:00:00 NR 29.2710 120.954 main 0 0 __________P___ -1 29.2710 120.954 4 13 322
1911217N18145 1911 47 WP MM NOT_NAMED 1911-08-11 03:00:00 NR 29.8016 120.595 main 0 0 __________P___ -1 29.8016 120.595 4 12 333
1911217N18145 1911 47 WP MM NOT_NAMED 1911-08-11 06:00:00 NR 30.3318 120.339 main 0 0 __________P___ -1 30.3318 120.339 4 11 337
1911217N18145 1911 47 WP MM NOT_NAMED 1911-08-11 09:00:00 NR 30.8000 120.100 main 0 0 __________O___ -1 30.8000 120.100 4 9 325
1911217N18145 1911 47 WP MM NOT_NAMED 1911-08-11 12:00:00 NR 31.0853 119.727 main 0 0 __________P___ -1 31.0853 119.727 4 8 309
1911217N18145 1911 47 WP MM NOT_NAMED 1911-08-11 15:00:00 NR 31.3076 119.360 main 0 0 __________P___ -1 31.3076 119.360 4 8 306
1911217N18145 1911 47 WP MM NOT_NAMED 1911-08-11 18:00:00 NR 31.5260 119.012 main 0 0 __________P___ -1 31.5260 119.012 4 7 311
1911217N18145 1911 47 WP MM NOT_NAMED 1911-08-11 21:00:00 NR 31.8000 118.700 main 0 0 __________O___ -1 31.8000 118.700 4 8 322
1911217N18145 1911 47 WP MM NOT_NAMED 1911-08-12 00:00:00 NR 32.1898 118.407 main 0 0 __________P___ -1 32.1898 118.407 4 10 331
1911217N18145 1911 47 WP MM NOT_NAMED 1911-08-12 03:00:00 NR 32.6449 118.154 main 0 0 __________P___ -1 32.6449 118.154 4 10 338
1911217N18145 1911 47 WP MM NOT_NAMED 1911-08-12 06:00:00 NR 33.1525 117.948 main 0 0 __________P___ -1 33.1525 117.948 4 11 344
1911217N18145 1911 47 WP MM NOT_NAMED 1911-08-12 09:00:00 NR 33.7000 117.800 main 0 0 __________O___ -1 33.7000 117.800 4 10 342
1911217N18145 1911 47 WP MM NOT_NAMED 1911-08-12 12:00:00 NR 34.1442 117.568 main 0 0 __________P___ -1 34.1442 117.568 4 10 341
1911217N18145 1911 47 WP MM NOT_NAMED 1911-08-12 15:00:00 NR 34.6410 117.414 main 0 0 __________P___ -1 34.6410 117.414 4 11 354
1911217N18145 1911 47 WP MM NOT_NAMED 1911-08-12 18:00:00 NR 35.2673 117.427 main 0 0 __________P___ -1 35.2673 117.427 4 15 9
1911217N18145 1911 47 WP MM NOT_NAMED 1911-08-12 21:00:00 NR 36.1000 117.700 main 0 0 __________O___ -1 36.1000 117.700 4 22 19
1911217N18145 1911 47 WP MM NOT_NAMED 1911-08-13 00:00:00 NR 37.3222 118.299 main 0 0 __________P___ -1 37.3222 118.299 4 29 24
1911217N18145 1911 47 WP MM NOT_NAMED 1911-08-13 03:00:00 NR 38.7276 119.195 main 56 11 __________P___ -1 38.7276 119.195 4 32 29
1911217N18145 1911 47 WP MM NOT_NAMED 1911-08-13 06:00:00 NR 40.1437 120.321 main 11 0 __________P___ -1 40.1437 120.321 4 32 35
1911217N18145 1911 47 WP MM NOT_NAMED 1911-08-13 09:00:00 NR 41.4000 121.600 main 0 0 __________O___ -1 41.4000 121.600 4 29 41
1911217N18145 1911 47 WP MM NOT_NAMED 1911-08-13 12:00:00 NR 42.3002 122.819 main 0 0 __________P___ -1 42.3002 122.819 4 25 49
1911217N18145 1911 47 WP MM NOT_NAMED 1911-08-13 15:00:00 NR 43.0169 124.157 main 0 0 __________P___ -1 43.0169 124.157 4 24 58
1911217N18145 1911 47 WP MM NOT_NAMED 1911-08-13 18:00:00 NR 43.6004 125.615 main 0 0 __________P___ -1 43.6004 125.615 4 25 64
1911217N18145 1911 47 WP MM NOT_NAMED 1911-08-13 21:00:00 NR 44.1000 127.200 main 0 0 __________O___ -1 44.1000 127.200 4 26 68
1911217N18145 1911 47 WP MM NOT_NAMED 1911-08-14 00:00:00 NR 44.5868 128.963 main 0 0 __________P___ -1 44.5868 128.963 4 27 71
1911217N18145 1911 47 WP MM NOT_NAMED 1911-08-14 03:00:00 NR 44.9954 130.839 main 0 0 __________P___ -1 44.9954 130.839 4 28 74
1911217N18145 1911 47 WP MM NOT_NAMED 1911-08-14 06:00:00 NR 45.3550 132.745 main 0 0 __________P___ -1 45.3550 132.745 4 27 75
1911217N18145 1911 47 WP MM NOT_NAMED 1911-08-14 09:00:00 NR 45.7000 134.600 main 0 0 __________O___ -1 45.7000 134.600 4 25 74
1911217N18145 1911 47 WP MM NOT_NAMED 1911-08-14 12:00:00 NR 46.0462 136.245 main 0 0 __________P___ -1 46.0462 136.245 4 23 73
1911217N18145 1911 47 WP MM NOT_NAMED 1911-08-14 15:00:00 NR 46.3994 137.837 main 0 0 __________P___ -1 46.3994 137.837 4 23 72
1911217N18145 1911 47 WP MM NOT_NAMED 1911-08-14 18:00:00 NR 46.7790 139.460 main 67 67 __________P___ -1 46.7790 139.460 4 24 71
1911217N18145 1911 47 WP MM NOT_NAMED 1911-08-14 21:00:00 NR 47.2000 141.200 main 67 0 __________O___ -1 47.2000 141.200 4 26 70
1911217N18145 1911 47 WP MM NOT_NAMED 1911-08-15 00:00:00 NR 47.6664 143.128 main 38 38 __________P___ -1 47.6664 143.128 4 29 71
1911217N18145 1911 47 WP MM NOT_NAMED 1911-08-15 03:00:00 NR 48.1559 145.232 main 57 57 __________P___ -1 48.1559 145.232 4 30 71
1911217N18145 1911 47 WP MM NOT_NAMED 1911-08-15 06:00:00 NR 48.6419 147.471 main 204 204 __________P___ -1 48.6419 147.471 4 32 73
1911217N18145 1911 47 WP MM NOT_NAMED 1911-08-15 09:00:00 NR 49.1000 149.800 main 334 __________O___ -1 49.1000 149.800 4 32 73

Digital Typhoon Data and Search

About IBTrACS Database

This database is a web-friendly format of International Best Track Archive for Climate Stewardship (IBTrACS), a global best track data archive curated by NOAA dating back to 1842.

Updated: 2021-10-27